Time;durP1;ratioP1;P1;durP2;ratioP2;P2;SDS_P1;SDS_P2;PMS_P1;PMS_P2;Temp;Humidity;BMP_temperature;BMP_pressure;BME280_temperature;BME280_humidity;BME280_pressure;Samples;Min_cycle;Max_cycle;Signal;HPM_P1;HPM_P2
2022/09/09 00:00:17;;;;;;;3.13;0.90;;;18.30;99.90;;;;;;2567810;23;20329;-75
2022/09/09 00:01:55;;;;;;;1.58;0.80;;;18.30;99.90;;;;;;2554016;23;20016;-75
2022/09/09 00:03:07;;;;;;;9.52;1.67;;;18.30;99.90;;;;;;2561953;23;20417;-75
2022/09/09 00:04:27;;;;;;;4.82;0.90;;;18.20;99.90;;;;;;2567541;23;20006;-75
2022/09/09 00:05:52;;;;;;;3.72;0.85;;;18.20;99.90;;;;;;2567629;23;19996;-75
2022/09/09 00:07:21;;;;;;;1.95;0.80;;;18.20;99.90;;;;;;2567669;23;20055;-75
2022/09/09 00:08:32;;;;;;;1.48;0.80;;;18.10;99.90;;;;;;2567647;23;20000;-75
2022/09/09 00:09:49;;;;;;;4.82;0.80;;;18.10;99.90;;;;;;2567560;23;20003;-75
2022/09/09 00:10:58;;;;;;;2.78;0.70;;;18.10;99.90;;;;;;2554042;23;20012;-75
2022/09/09 00:12:12;;;;;;;1.35;0.50;;;18.10;99.90;;;;;;2553968;23;20055;-74
2022/09/09 00:13:24;;;;;;;2.20;0.80;;;18.00;99.90;;;;;;2556860;23;20001;-75
2022/09/09 00:14:45;;;;;;;2.10;0.77;;;18.00;99.90;;;;;;2567428;23;20099;-75
2022/09/09 00:15:54;;;;;;;2.03;0.68;;;18.00;99.90;;;;;;2567317;23;19996;-75
2022/09/09 00:16:59;;;;;;;2.05;0.73;;;18.00;99.90;;;;;;2566840;23;20008;-75
2022/09/09 00:18:05;;;;;;;2.30;0.88;;;18.00;99.90;;;;;;2567685;23;20004;-74
2022/09/09 00:19:21;;;;;;;1.85;0.57;;;18.00;99.90;;;;;;2554072;23;20449;-75
2022/09/09 00:20:38;;;;;;;1.77;0.70;;;17.90;99.90;;;;;;2557342;23;20008;-75
2022/09/09 00:21:46;;;;;;;1.23;0.52;;;17.90;99.90;;;;;;2554376;23;20009;-75
2022/09/09 00:23:05;;;;;;;1.75;0.60;;;17.90;99.90;;;;;;2556387;23;20005;-75
2022/09/09 00:24:18;;;;;;;1.33;0.73;;;17.90;99.90;;;;;;2567728;23;20008;-74
2022/09/09 00:25:28;;;;;;;1.17;0.60;;;17.90;99.90;;;;;;2567605;23;20013;-75
2022/09/09 00:26:36;;;;;;;1.87;0.70;;;17.90;99.90;;;;;;2567302;23;20009;-75
2022/09/09 00:27:50;;;;;;;2.47;0.70;;;17.90;99.90;;;;;;2567422;23;20223;-74
2022/09/09 00:29:09;;;;;;;1.40;0.63;;;17.80;99.90;;;;;;2567334;23;19997;-75
2022/09/09 00:30:33;;;;;;;1.83;0.80;;;17.80;99.90;;;;;;2567467;23;20054;-74
2022/09/09 00:31:34;;;;;;;4.07;0.80;;;17.80;99.90;;;;;;2567428;23;20047;-74
2022/09/09 00:32:35;;;;;;;2.65;0.60;;;17.90;99.90;;;;;;2567670;23;20004;-74
2022/09/09 00:33:38;;;;;;;1.17;0.80;;;17.80;99.90;;;;;;2566870;23;20019;-75
2022/09/09 00:34:48;;;;;;;2.00;0.70;;;17.80;99.90;;;;;;2567436;23;20004;-74
2022/09/09 00:36:13;;;;;;;3.38;0.80;;;17.80;99.90;;;;;;2553980;23;20005;-74
2022/09/09 00:37:14;;;;;;;1.75;0.60;;;17.80;99.90;;;;;;2544171;23;20341;-74
2022/09/09 00:38:20;;;;;;;0.85;0.73;;;17.80;99.90;;;;;;2566994;23;20004;-74
2022/09/09 00:39:39;;;;;;;2.17;0.60;;;17.80;99.90;;;;;;2554440;23;20015;-74
2022/09/09 00:40:50;;;;;;;2.05;0.95;;;17.80;99.90;;;;;;2558314;23;20005;-74
2022/09/09 00:42:23;;;;;;;0.85;0.50;;;17.80;99.90;;;;;;2567489;23;20028;-75
2022/09/09 00:43:30;;;;;;;1.83;0.70;;;17.70;99.90;;;;;;2566783;23;20004;-75
2022/09/09 00:44:36;;;;;;;1.23;0.60;;;17.80;99.90;;;;;;2566509;23;20000;-74
2022/09/09 00:45:43;;;;;;;2.20;0.52;;;17.80;99.90;;;;;;2566967;23;20004;-75
2022/09/09 00:46:58;;;;;;;1.23;0.60;;;17.80;99.90;;;;;;2567167;23;20009;-74
2022/09/09 00:48:07;;;;;;;2.60;0.95;;;17.80;99.90;;;;;;2567464;23;20380;-75
2022/09/09 00:49:33;;;;;;;1.48;0.57;;;17.80;99.90;;;;;;2567427;23;20055;-75
2022/09/09 00:50:46;;;;;;;1.23;0.50;;;17.80;99.90;;;;;;2567500;23;20007;-74
2022/09/09 00:51:46;;;;;;;1.25;0.57;;;17.80;99.90;;;;;;2567556;23;20683;-75
2022/09/09 00:53:22;;;;;;;1.38;0.63;;;17.80;99.90;;;;;;2567293;23;20008;-74
2022/09/09 00:54:32;;;;;;;1.83;0.57;;;17.80;99.90;;;;;;2554158;23;20452;-74
2022/09/09 00:55:37;;;;;;;1.27;0.60;;;17.80;99.90;;;;;;2555644;23;20001;-75
2022/09/09 00:56:45;;;;;;;2.58;0.65;;;17.80;99.90;;;;;;2566823;23;20000;-74
2022/09/09 00:57:51;;;;;;;2.33;0.68;;;17.80;99.90;;;;;;2567556;23;20005;-75
2022/09/09 00:59:15;;;;;;;3.00;0.88;;;17.80;99.90;;;;;;2554276;23;20514;-74
2022/09/09 01:00:39;;;;;;;2.45;0.50;;;17.80;99.90;;;;;;2559560;23;20707;-74
2022/09/09 01:01:40;;;;;;;3.25;0.70;;;17.80;99.90;;;;;;2554915;23;20012;-74
2022/09/09 01:02:46;;;;;;;1.75;0.50;;;17.80;99.90;;;;;;2554646;23;19997;-74
2022/09/09 01:03:53;;;;;;;1.52;0.70;;;17.80;99.90;;;;;;2553668;23;20017;-75
2022/09/09 01:04:54;;;;;;;1.23;0.50;;;17.80;99.90;;;;;;2554564;23;20015;-75
2022/09/09 01:06:05;;;;;;;0.93;0.60;;;17.80;99.90;;;;;;2554755;23;20016;-75
2022/09/09 01:07:17;;;;;;;0.43;0.38;;;17.80;99.90;;;;;;2568033;23;20004;-75
2022/09/09 01:08:50;;;;;;;0.57;0.50;;;17.80;99.90;;;;;;2568028;23;20031;-75
2022/09/09 01:09:58;;;;;;;2.17;0.70;;;17.80;99.90;;;;;;2567997;23;19997;-75
2022/09/09 01:10:59;;;;;;;1.60;0.68;;;17.70;99.90;;;;;;2567788;23;20345;-75
2022/09/09 01:12:03;;;;;;;1.20;0.45;;;17.70;99.90;;;;;;2567486;23;20545;-74
2022/09/09 01:13:13;;;;;;;2.13;0.68;;;17.70;99.90;;;;;;2566961;23;20007;-75
2022/09/09 01:14:23;;;;;;;1.35;0.43;;;17.70;99.90;;;;;;2568487;23;20016;-75
2022/09/09 01:15:28;;;;;;;2.35;0.80;;;17.70;99.90;;;;;;2567951;23;20076;-74
2022/09/09 01:16:31;;;;;;;2.40;0.70;;;17.70;99.90;;;;;;2566883;23;20005;-75
2022/09/09 01:17:37;;;;;;;2.47;0.50;;;17.70;99.90;;;;;;2567763;23;20000;-75
2022/09/09 01:18:45;;;;;;;1.17;0.80;;;17.70;99.90;;;;;;2554426;23;20092;-74
2022/09/09 01:20:25;;;;;;;1.92;0.70;;;17.70;99.90;;;;;;2554727;23;20761;-75
2022/09/09 01:22:03;;;;;;;2.58;0.70;;;17.70;99.90;;;;;;2554913;23;20039;-74
2022/09/09 01:23:16;;;;;;;1.85;0.63;;;17.70;99.90;;;;;;2558468;23;20021;-75
2022/09/09 01:24:30;;;;;;;1.88;0.60;;;17.70;99.90;;;;;;2568056;23;20008;-75
2022/09/09 01:25:43;;;;;;;2.30;0.90;;;17.70;99.90;;;;;;2567540;23;20008;-75
2022/09/09 01:26:45;;;;;;;1.55;0.80;;;17.60;99.90;;;;;;2554281;23;20474;-75
2022/09/09 01:27:49;;;;;;;0.90;0.55;;;17.70;99.90;;;;;;2554637;23;20200;-75
2022/09/09 01:28:54;;;;;;;1.27;0.70;;;17.70;99.90;;;;;;2568301;23;19997;-74
2022/09/09 01:29:55;;;;;;;1.38;0.80;;;17.70;99.90;;;;;;2567809;23;20004;-74
2022/09/09 01:30:58;;;;;;;0.90;0.80;;;17.70;99.90;;;;;;2567753;23;20006;-75
2022/09/09 01:32:01;;;;;;;2.10;0.65;;;17.70;99.90;;;;;;2567942;23;19996;-75
2022/09/09 01:33:03;;;;;;;1.35;0.90;;;17.70;99.90;;;;;;2567360;23;20475;-75
2022/09/09 01:34:13;;;;;;;2.00;0.95;;;17.70;99.90;;;;;;2567197;23;20039;-75
2022/09/09 01:35:48;;;;;;;1.45;0.80;;;17.70;99.90;;;;;;2567730;23;19996;-75
2022/09/09 01:37:00;;;;;;;1.73;0.95;;;17.60;99.90;;;;;;2567621;23;20008;-74
2022/09/09 01:38:01;;;;;;;1.75;0.70;;;17.60;99.90;;;;;;2554697;23;20452;-75
2022/09/09 01:39:02;;;;;;;4.93;0.98;;;17.60;99.90;;;;;;2554617;23;20369;-75
2022/09/09 01:40:03;;;;;;;2.20;0.90;;;17.70;99.90;;;;;;2568192;23;20004;-75
2022/09/09 01:41:04;;;;;;;3.17;1.52;;;17.60;99.90;;;;;;2567711;23;20009;-74
2022/09/09 01:42:08;;;;;;;2.10;0.90;;;17.60;99.90;;;;;;2567490;23;20140;-74
2022/09/09 01:43:09;;;;;;;2.63;0.80;;;17.70;99.90;;;;;;2567556;23;20487;-75
2022/09/09 01:44:10;;;;;;;5.47;1.23;;;17.60;99.90;;;;;;2554375;23;20393;-75
2022/09/09 01:45:11;;;;;;;3.20;1.30;;;17.60;99.90;;;;;;2554062;23;20005;-74
2022/09/09 01:46:13;;;;;;;2.03;1.08;;;17.70;99.90;;;;;;2554576;23;20005;-75
2022/09/09 01:47:15;;;;;;;2.40;1.40;;;17.60;99.90;;;;;;2554371;23;20005;-75
2022/09/09 01:48:17;;;;;;;5.55;1.20;;;17.60;99.90;;;;;;2567281;23;20016;-75
2022/09/09 01:49:18;;;;;;;2.28;1.05;;;17.60;99.90;;;;;;2567590;23;20020;-75
2022/09/09 01:50:20;;;;;;;4.18;1.27;;;17.60;99.90;;;;;;2567282;23;20084;-74
2022/09/09 01:51:21;;;;;;;3.90;1.30;;;17.60;99.90;;;;;;2567432;23;20004;-74
2022/09/09 01:52:22;;;;;;;4.70;1.65;;;17.60;99.90;;;;;;2567371;23;20005;-74
2022/09/09 01:53:23;;;;;;;3.13;1.55;;;17.60;99.90;;;;;;2566938;23;20606;-75
2022/09/09 01:54:27;;;;;;;4.57;1.48;;;17.60;99.90;;;;;;2567543;23;20059;-75
2022/09/09 01:55:53;;;;;;;3.55;1.58;;;17.60;99.90;;;;;;2553839;23;20009;-75
2022/09/09 01:57:06;;;;;;;2.83;1.42;;;17.60;99.90;;;;;;2559612;23;20010;-75
2022/09/09 01:58:36;;;;;;;4.13;1.13;;;17.60;99.90;;;;;;2553834;23;20092;-75
2022/09/09 01:59:46;;;;;;;2.80;1.60;;;17.60;99.90;;;;;;2560766;23;20005;-75
2022/09/09 02:01:22;;;;;;;4.68;1.67;;;17.60;99.90;;;;;;2567484;23;20004;-75
2022/09/09 02:02:53;;;;;;;3.67;1.88;;;17.60;99.90;;;;;;2545912;23;20026;-75
2022/09/09 02:03:57;;;;;;;4.05;2.03;;;17.60;99.90;;;;;;2567629;23;20154;-75
2022/09/09 02:05:16;;;;;;;2.88;1.52;;;17.50;99.90;;;;;;2567864;23;20008;-74
2022/09/09 02:06:28;;;;;;;4.43;1.38;;;17.50;99.90;;;;;;2567238;23;20008;-74
2022/09/09 02:07:40;;;;;;;5.05;1.90;;;17.50;99.90;;;;;;2554234;23;20016;-75
2022/09/09 02:08:49;;;;;;;3.60;1.20;;;17.60;99.90;;;;;;2556640;23;20001;-75
2022/09/09 02:09:57;;;;;;;3.28;1.70;;;17.60;99.90;;;;;;2567597;23;20299;-75
2022/09/09 02:11:16;;;;;;;3.55;1.50;;;17.60;99.90;;;;;;2567346;23;20087;-75
2022/09/09 02:12:20;;;;;;;3.63;1.45;;;17.60;99.90;;;;;;2567216;23;20727;-75
2022/09/09 02:13:22;;;;;;;4.75;2.17;;;17.60;99.90;;;;;;2567091;23;20011;-75
2022/09/09 02:14:30;;;;;;;3.00;1.30;;;17.60;99.90;;;;;;2567471;23;20012;-74
2022/09/09 02:15:37;;;;;;;4.90;1.65;;;17.60;99.90;;;;;;2567156;23;20000;-75
2022/09/09 02:16:50;;;;;;;3.50;1.42;;;17.60;99.90;;;;;;2566943;23;20501;-75
2022/09/09 02:17:53;;;;;;;4.80;1.80;;;17.60;99.90;;;;;;2553766;23;20009;-74
2022/09/09 02:19:02;;;;;;;2.60;1.60;;;17.60;99.90;;;;;;2554574;23;20200;-75
2022/09/09 02:20:09;;;;;;;2.50;1.48;;;17.60;99.90;;;;;;2567555;23;20313;-75
2022/09/09 02:21:13;;;;;;;3.30;1.65;;;17.60;99.90;;;;;;2567617;23;20060;-75
2022/09/09 02:22:17;;;;;;;4.05;1.42;;;17.60;99.90;;;;;;2567788;23;20009;-75
2022/09/09 02:23:19;;;;;;;2.72;1.23;;;17.60;99.90;;;;;;2566628;23;20004;-74
2022/09/09 02:24:19;;;;;;;3.65;1.70;;;17.60;99.90;;;;;;2567972;23;20013;-75
2022/09/09 02:25:24;;;;;;;6.80;1.42;;;17.60;99.90;;;;;;2567044;23;20001;-75
2022/09/09 02:26:26;;;;;;;2.67;1.42;;;17.60;99.90;;;;;;2567362;23;20654;-75
2022/09/09 02:27:27;;;;;;;3.85;1.42;;;17.60;99.90;;;;;;2567528;23;20482;-75
2022/09/09 02:28:30;;;;;;;3.80;1.30;;;17.60;99.90;;;;;;2567731;23;20485;-75
2022/09/09 02:29:41;;;;;;;3.50;1.55;;;17.60;99.90;;;;;;2567541;23;20598;-74
2022/09/09 02:30:41;;;;;;;;;;;17.60;99.90;;;;;;2567921;23;20004;-75
2022/09/09 02:31:45;;;;;;;4.22;1.60;;;17.50;99.90;;;;;;2567220;23;19935;-75
2022/09/09 02:32:48;;;;;;;2.63;1.58;;;17.50;99.90;;;;;;2567267;23;20058;-75
2022/09/09 02:33:56;;;;;;;2.67;1.50;;;17.50;99.90;;;;;;2567199;23;20075;-75
2022/09/09 02:35:02;;;;;;;2.78;1.20;;;17.50;99.90;;;;;;2554228;23;20108;-75
2022/09/09 02:36:06;;;;;;;2.25;1.17;;;17.50;99.90;;;;;;2554094;23;20484;-75
2022/09/09 02:37:09;;;;;;;3.95;1.38;;;17.50;99.90;;;;;;2553357;23;20052;-74
2022/09/09 02:38:14;;;;;;;3.63;1.55;;;17.50;99.90;;;;;;2554098;23;20005;-75
2022/09/09 02:39:15;;;;;;;4.18;1.42;;;17.60;99.90;;;;;;2567591;23;20007;-74
2022/09/09 02:40:16;;;;;;;1.63;1.00;;;17.50;99.90;;;;;;2554093;23;20008;-75
2022/09/09 02:41:20;;;;;;;3.60;1.27;;;17.60;99.90;;;;;;2554195;23;20005;-75
2022/09/09 02:42:20;;;;;;;3.55;1.52;;;17.60;99.90;;;;;;2554066;23;20005;-75
2022/09/09 02:43:21;;;;;;;2.70;1.63;;;17.60;99.90;;;;;;2553881;23;20005;-75
2022/09/09 02:44:22;;;;;;;3.70;1.30;;;17.60;99.90;;;;;;2567392;23;20028;-75
2022/09/09 02:45:31;;;;;;;2.85;1.40;;;17.60;99.90;;;;;;2567170;23;20000;-75
2022/09/09 02:46:43;;;;;;;3.10;1.27;;;17.60;99.90;;;;;;2553786;23;20005;-74
2022/09/09 02:48:11;;;;;;;2.10;1.50;;;17.60;99.90;;;;;;2553663;23;20001;-75
2022/09/09 02:49:30;;;;;;;2.03;1.17;;;17.60;99.90;;;;;;2546988;23;20004;-75
2022/09/09 02:50:42;;;;;;;5.63;1.67;;;17.60;99.90;;;;;;2558102;23;20747;-75
2022/09/09 02:51:43;;;;;;;5.32;1.70;;;17.60;99.90;;;;;;2553991;23;20473;-75
2022/09/09 02:53:12;;;;;;;5.07;1.80;;;17.60;99.90;;;;;;2554848;23;20028;-75
2022/09/09 02:54:31;;;;;;;5.40;1.77;;;17.60;99.90;;;;;;2555267;23;20028;-75
2022/09/09 02:55:46;;;;;;;4.30;1.30;;;17.60;99.90;;;;;;2555395;23;20044;-75
2022/09/09 02:56:56;;;;;;;2.90;1.52;;;17.60;99.90;;;;;;2555760;23;20337;-75
2022/09/09 02:57:59;;;;;;;5.18;1.80;;;17.60;99.90;;;;;;2554706;23;20464;-75
2022/09/09 02:58:59;;;;;;;5.40;1.88;;;17.50;99.90;;;;;;2555231;23;20112;-75
2022/09/09 03:00:01;;;;;;;5.03;1.60;;;17.60;99.90;;;;;;2555165;23;20005;-75
2022/09/09 03:01:02;;;;;;;4.78;2.15;;;17.60;99.90;;;;;;2555680;23;20011;-75
2022/09/09 03:02:03;;;;;;;3.95;1.40;;;17.60;99.90;;;;;;2554879;23;20009;-74
2022/09/09 03:03:04;;;;;;;7.22;2.00;;;17.60;99.90;;;;;;2554503;23;20084;-75
2022/09/09 03:04:05;;;;;;;3.72;1.55;;;17.60;99.90;;;;;;2555623;23;20009;-75
2022/09/09 03:05:06;;;;;;;6.55;1.95;;;17.60;99.90;;;;;;2556089;23;20001;-74
2022/09/09 03:06:07;;;;;;;7.07;1.50;;;17.60;99.90;;;;;;2554890;23;20009;-75
2022/09/09 03:07:07;;;;;;;3.25;1.33;;;17.60;99.90;;;;;;2555419;23;20844;-75
2022/09/09 03:08:09;;;;;;;3.38;1.50;;;17.60;99.90;;;;;;2556248;23;20039;-75
2022/09/09 03:09:10;;;;;;;4.63;2.25;;;17.60;99.90;;;;;;2555974;23;20337;-75
2022/09/09 03:10:11;;;;;;;3.80;1.70;;;17.60;99.90;;;;;;2555748;23;20493;-74
2022/09/09 03:11:11;;;;;;;3.00;1.80;;;17.60;99.90;;;;;;2555972;23;20385;-75
2022/09/09 03:12:12;;;;;;;3.85;1.85;;;17.60;99.90;;;;;;2555468;23;20001;-75
2022/09/09 03:13:15;;;;;;;3.33;1.60;;;17.70;99.90;;;;;;2555523;23;20012;-75
2022/09/09 03:14:16;;;;;;;4.43;1.60;;;17.60;99.90;;;;;;2554558;23;20008;-75
2022/09/09 03:15:17;;;;;;;3.42;1.67;;;17.60;99.90;;;;;;2554471;23;20060;-75
2022/09/09 03:16:17;;;;;;;3.88;1.55;;;17.60;99.90;;;;;;2554774;23;20029;-75
2022/09/09 03:17:18;;;;;;;3.60;1.48;;;17.60;99.90;;;;;;2555370;23;20481;-75
2022/09/09 03:18:18;;;;;;;2.20;1.45;;;17.70;99.90;;;;;;2555653;23;20005;-75
2022/09/09 03:19:20;;;;;;;6.28;1.75;;;17.60;99.90;;;;;;2555392;23;20338;-75
2022/09/09 03:20:21;;;;;;;3.00;1.83;;;17.70;99.90;;;;;;2554574;23;20100;-75
2022/09/09 03:21:21;;;;;;;3.70;1.67;;;17.70;99.90;;;;;;2555176;23;20534;-75
2022/09/09 03:22:22;;;;;;;4.40;1.58;;;17.70;99.90;;;;;;2554681;23;20008;-75
2022/09/09 03:23:22;;;;;;;5.13;1.48;;;17.70;99.90;;;;;;2554001;23;20029;-75
2022/09/09 03:24:23;;;;;;;4.13;1.55;;;17.70;99.90;;;;;;2555599;23;20001;-74
2022/09/09 03:25:24;;;;;;;2.58;1.38;;;17.70;99.90;;;;;;2555388;23;20789;-74
2022/09/09 03:26:25;;;;;;;4.88;1.85;;;17.70;99.90;;;;;;2555677;23;20012;-74
2022/09/09 03:27:25;;;;;;;3.15;1.42;;;17.70;99.90;;;;;;2555612;23;20013;-74
2022/09/09 03:28:31;;;;;;;5.40;1.50;;;17.70;99.90;;;;;;2555490;23;20091;-75
2022/09/09 03:29:31;;;;;;;3.50;1.40;;;17.70;99.90;;;;;;2555913;23;20005;-75
2022/09/09 03:30:32;;;;;;;4.72;1.20;;;17.70;99.90;;;;;;2555678;23;20008;-74
2022/09/09 03:31:33;;;;;;;2.42;1.10;;;17.60;99.90;;;;;;2555387;23;19997;-74
2022/09/09 03:32:34;;;;;;;5.80;1.50;;;17.70;99.90;;;;;;2554940;23;20572;-74
2022/09/09 03:33:36;;;;;;;2.70;1.38;;;17.70;99.90;;;;;;2553851;23;20500;-74
2022/09/09 03:34:40;;;;;;;3.28;1.70;;;17.70;99.90;;;;;;2554822;23;20092;-74
2022/09/09 03:35:47;;;;;;;2.25;1.30;;;17.70;99.90;;;;;;2555250;23;20689;-74
2022/09/09 03:36:49;;;;;;;2.90;1.40;;;17.60;99.90;;;;;;2555401;23;20334;-74
2022/09/09 03:37:49;;;;;;;4.10;1.38;;;17.60;99.90;;;;;;2555809;23;20879;-74
2022/09/09 03:38:50;;;;;;;4.18;1.77;;;17.60;99.90;;;;;;2555432;23;20071;-74
2022/09/09 03:39:51;;;;;;;2.85;1.40;;;17.60;99.90;;;;;;2555658;23;20059;-74
2022/09/09 03:41:00;;;;;;;2.30;1.45;;;17.60;99.90;;;;;;2554844;23;20039;-74
2022/09/09 03:42:03;;;;;;;3.40;1.65;;;17.60;99.90;;;;;;2554194;23;20009;-74
2022/09/09 03:43:04;;;;;;;4.07;1.50;;;17.60;99.90;;;;;;2554132;23;20028;-75
2022/09/09 03:44:04;;;;;;;4.18;1.23;;;17.60;99.90;;;;;;2554557;23;20109;-75
2022/09/09 03:45:08;;;;;;;4.15;1.38;;;17.60;99.90;;;;;;2554417;23;20060;-74
2022/09/09 03:46:09;;;;;;;3.15;1.00;;;17.60;99.90;;;;;;2555364;23;20445;-74
2022/09/09 03:47:09;;;;;;;5.38;1.42;;;17.60;99.90;;;;;;2555177;23;20346;-74
2022/09/09 03:48:11;;;;;;;3.40;1.20;;;17.60;99.90;;;;;;2555493;23;20005;-74
2022/09/09 03:49:12;;;;;;;2.63;1.15;;;17.60;99.90;;;;;;2555570;23;20333;-74
2022/09/09 03:50:13;;;;;;;3.03;1.20;;;17.60;99.90;;;;;;2555291;23;20001;-75
2022/09/09 03:51:14;;;;;;;5.30;1.15;;;17.60;99.90;;;;;;2555112;23;20421;-74
2022/09/09 03:52:15;;;;;;;4.53;1.30;;;17.60;99.90;;;;;;2554521;23;20009;-74
2022/09/09 03:53:19;;;;;;;3.22;1.42;;;17.60;99.90;;;;;;2553829;23;20092;-74
2022/09/09 03:54:19;;;;;;;4.85;1.48;;;17.60;99.90;;;;;;2554329;23;20009;-74
2022/09/09 03:55:20;;;;;;;3.85;1.20;;;17.60;99.90;;;;;;2541869;23;20001;-75
2022/09/09 03:56:21;;;;;;;3.38;1.30;;;17.60;99.90;;;;;;2554153;23;20032;-74
2022/09/09 03:57:22;;;;;;;2.03;1.25;;;17.60;99.90;;;;;;2554860;23;20005;-74
2022/09/09 03:58:26;;;;;;;4.20;1.63;;;17.60;99.90;;;;;;2554420;23;20509;-74
2022/09/09 03:59:27;;;;;;;4.18;1.42;;;17.60;99.90;;;;;;2554177;23;20561;-75
2022/09/09 04:00:28;;;;;;;4.28;1.35;;;17.60;99.90;;;;;;2554842;23;20369;-74
2022/09/09 04:01:29;;;;;;;2.85;1.60;;;17.60;99.90;;;;;;2554392;23;20091;-74
2022/09/09 04:02:29;;;;;;;5.30;1.38;;;17.60;99.90;;;;;;2554092;23;20001;-74
2022/09/09 04:03:31;;;;;;;4.15;1.27;;;17.60;99.90;;;;;;2553952;23;20016;-74
2022/09/09 04:04:32;;;;;;;3.10;1.20;;;17.60;99.90;;;;;;2554210;23;19993;-74
2022/09/09 04:05:33;;;;;;;5.95;1.73;;;17.50;99.90;;;;;;2555219;23;20001;-74
2022/09/09 04:06:34;;;;;;;2.95;1.23;;;17.50;99.90;;;;;;2555493;23;20028;-75
2022/09/09 04:07:35;;;;;;;2.42;1.30;;;17.50;99.90;;;;;;2555036;23;20413;-75
2022/09/09 04:08:37;;;;;;;3.67;1.33;;;17.50;99.90;;;;;;2555363;23;20084;-75
2022/09/09 04:09:37;;;;;;;4.20;1.60;;;17.50;99.90;;;;;;2555156;23;20001;-74
2022/09/09 04:10:38;;;;;;;2.20;1.20;;;17.50;99.90;;;;;;2554373;23;20005;-74
2022/09/09 04:11:38;;;;;;;4.60;1.98;;;17.50;99.90;;;;;;2554658;23;20005;-74
2022/09/09 04:12:39;;;;;;;4.55;1.60;;;17.50;99.90;;;;;;2554853;23;20012;-75
2022/09/09 04:13:40;;;;;;;6.68;1.70;;;17.50;99.90;;;;;;2554846;23;20005;-74
2022/09/09 04:14:40;;;;;;;4.93;1.67;;;17.50;99.90;;;;;;2555495;23;20000;-74
2022/09/09 04:15:41;;;;;;;2.95;1.30;;;17.50;99.90;;;;;;2553879;23;20004;-74
2022/09/09 04:16:44;;;;;;;5.68;1.27;;;17.50;99.90;;;;;;2554068;23;20080;-74
2022/09/09 04:17:44;;;;;;;4.85;1.35;;;17.50;99.90;;;;;;2554298;23;20397;-74
2022/09/09 04:18:46;;;;;;;4.07;1.38;;;17.50;99.90;;;;;;2554459;23;20116;-75
2022/09/09 04:19:46;;;;;;;2.55;1.10;;;17.50;99.90;;;;;;2555530;23;20009;-74
2022/09/09 04:20:51;;;;;;;4.38;1.65;;;17.50;99.90;;;;;;2554109;23;20009;-74
2022/09/09 04:21:51;;;;;;;2.65;1.23;;;17.50;99.90;;;;;;2554306;23;20059;-74
2022/09/09 04:22:52;;;;;;;4.38;1.50;;;17.50;99.90;;;;;;2555215;23;20059;-74
2022/09/09 04:23:53;;;;;;;3.80;1.30;;;17.50;99.90;;;;;;2554633;23;20008;-74
2022/09/09 04:24:53;;;;;;;3.97;1.77;;;17.50;99.90;;;;;;2555119;23;20004;-74
2022/09/09 04:25:55;;;;;;;3.63;1.35;;;17.50;99.90;;;;;;2553958;23;20013;-74
2022/09/09 04:26:55;;;;;;;5.22;1.50;;;17.50;99.90;;;;;;2554514;23;20084;-74
2022/09/09 04:27:57;;;;;;;4.72;1.67;;;17.50;99.90;;;;;;2555397;23;20008;-74
2022/09/09 04:28:58;;;;;;;3.30;1.58;;;17.50;99.90;;;;;;2555087;23;20352;-74
2022/09/09 04:29:58;;;;;;;4.32;1.80;;;17.50;99.90;;;;;;2555438;23;20028;-74
2022/09/09 04:31:14;;;;;;;3.28;1.40;;;17.50;99.90;;;;;;2555111;23;20091;-75
2022/09/09 04:32:14;;;;;;;5.80;1.50;;;17.60;99.90;;;;;;2555190;23;20627;-74
2022/09/09 04:33:17;;;;;;;3.70;1.52;;;17.50;99.90;;;;;;2554697;23;20437;-75
2022/09/09 04:34:17;;;;;;;4.38;1.40;;;17.50;99.90;;;;;;2555368;23;20023;-75
2022/09/09 04:35:19;;;;;;;4.00;1.67;;;17.60;99.90;;;;;;2554315;23;20064;-74
2022/09/09 04:36:21;;;;;;;3.97;1.58;;;17.60;99.90;;;;;;2554190;23;20075;-74
2022/09/09 04:37:21;;;;;;;3.80;1.50;;;17.60;99.90;;;;;;2555250;23;20001;-74
2022/09/09 04:38:22;;;;;;;2.78;1.60;;;17.60;99.90;;;;;;2555327;23;20001;-74
2022/09/09 04:39:23;;;;;;;4.38;1.42;;;17.60;99.90;;;;;;2555044;23;20001;-74
2022/09/09 04:40:24;;;;;;;2.42;1.40;;;17.60;99.90;;;;;;2555457;23;20027;-74
2022/09/09 04:41:25;;;;;;;2.67;1.40;;;17.60;99.90;;;;;;2555191;23;20022;-74
2022/09/09 04:42:25;;;;;;;6.25;1.73;;;17.60;99.90;;;;;;2555252;23;20084;-74
2022/09/09 04:43:26;;;;;;;2.95;1.20;;;17.60;99.90;;;;;;2554709;23;20407;-74
2022/09/09 04:44:27;;;;;;;3.38;1.75;;;17.60;99.90;;;;;;2554377;23;20005;-74
2022/09/09 04:45:27;;;;;;;3.83;1.63;;;17.60;99.90;;;;;;2555466;23;20317;-74
2022/09/09 04:46:28;;;;;;;2.88;1.75;;;17.60;99.90;;;;;;2554763;23;20705;-75
2022/09/09 04:47:29;;;;;;;2.50;1.10;;;17.60;99.90;;;;;;2554946;23;20005;-74
2022/09/09 04:48:30;;;;;;;4.32;1.55;;;17.60;99.90;;;;;;2555082;23;20016;-74
2022/09/09 04:49:31;;;;;;;2.95;1.45;;;17.50;99.90;;;;;;2554874;23;19997;-75
2022/09/09 04:50:31;;;;;;;4.32;1.60;;;17.60;99.90;;;;;;2555166;23;20024;-75
2022/09/09 04:51:32;;;;;;;3.17;1.30;;;17.50;99.90;;;;;;2555179;23;20028;-75
2022/09/09 04:52:35;;;;;;;2.65;1.20;;;17.60;99.90;;;;;;2560192;23;20009;-75
2022/09/09 04:53:35;;;;;;;5.20;1.60;;;17.60;99.90;;;;;;2567004;23;20496;-75
2022/09/09 04:54:36;;;;;;;3.35;1.02;;;17.50;99.90;;;;;;2566940;23;20326;-75
2022/09/09 04:55:37;;;;;;;11.65;1.60;;;17.50;99.90;;;;;;2567747;23;19992;-74
2022/09/09 04:56:38;;;;;;;5.75;1.80;;;17.50;99.90;;;;;;2567047;23;20027;-74
2022/09/09 04:57:39;;;;;;;3.88;1.70;;;17.50;99.90;;;;;;2553956;23;20450;-74
2022/09/09 04:58:42;;;;;;;6.00;1.50;;;17.50;99.90;;;;;;2554556;23;20069;-74
2022/09/09 04:59:44;;;;;;;4.82;1.42;;;17.50;99.90;;;;;;2567305;23;20015;-74
2022/09/09 05:00:44;;;;;;;7.47;1.80;;;17.50;99.90;;;;;;2567406;23;20008;-75
2022/09/09 05:01:45;;;;;;;3.38;1.52;;;17.50;99.90;;;;;;2567450;23;20084;-75
2022/09/09 05:02:46;;;;;;;5.00;1.85;;;17.50;99.90;;;;;;2566302;23;20063;-75
2022/09/09 05:03:47;;;;;;;5.30;1.52;;;17.50;99.90;;;;;;2566071;23;20005;-75
2022/09/09 05:04:49;;;;;;;5.25;2.00;;;17.50;99.90;;;;;;2567630;23;20065;-75
2022/09/09 05:05:50;;;;;;;4.82;1.70;;;17.50;99.90;;;;;;2566829;23;20087;-74
2022/09/09 05:06:50;;;;;;;6.18;1.70;;;17.50;99.90;;;;;;2567415;23;20009;-74
2022/09/09 05:07:51;;;;;;;3.45;1.48;;;17.50;99.90;;;;;;2567195;23;20032;-74
2022/09/09 05:08:51;;;;;;;8.27;1.52;;;17.50;99.90;;;;;;2567658;23;20082;-74
2022/09/09 05:09:52;;;;;;;6.10;1.85;;;17.50;99.90;;;;;;2567425;23;20000;-74
2022/09/09 05:10:52;;;;;;;4.78;1.60;;;17.50;99.90;;;;;;2567363;23;20713;-74
2022/09/09 05:11:53;;;;;;;7.53;1.70;;;17.50;99.90;;;;;;2554321;23;20012;-74
2022/09/09 05:12:54;;;;;;;4.25;1.48;;;17.50;99.90;;;;;;2554089;23;20011;-74
2022/09/09 05:13:56;;;;;;;5.32;1.70;;;17.50;99.90;;;;;;2566895;23;20024;-74
2022/09/09 05:14:56;;;;;;;3.88;1.27;;;17.50;99.90;;;;;;2553751;23;20327;-74
2022/09/09 05:15:57;;;;;;;3.55;1.65;;;17.50;99.90;;;;;;2554008;23;20055;-74
2022/09/09 05:16:58;;;;;;;3.85;1.45;;;17.50;99.90;;;;;;2553790;23;20519;-75
2022/09/09 05:18:02;;;;;;;5.30;1.73;;;17.50;99.90;;;;;;2554289;23;20032;-74
2022/09/09 05:19:03;;;;;;;6.47;1.90;;;17.60;99.90;;;;;;2566971;23;20389;-74
2022/09/09 05:20:04;;;;;;;5.15;1.58;;;17.50;99.90;;;;;;2567444;23;20031;-75
2022/09/09 05:21:06;;;;;;;6.63;1.77;;;17.60;99.90;;;;;;2567336;23;20004;-74
2022/09/09 05:22:07;;;;;;;4.05;1.65;;;17.50;99.90;;;;;;2567331;23;20004;-74
2022/09/09 05:23:09;;;;;;;4.57;1.75;;;17.50;99.90;;;;;;2566513;23;20031;-74
2022/09/09 05:24:10;;;;;;;7.55;2.17;;;17.50;99.90;;;;;;2567148;23;20013;-74
2022/09/09 05:25:11;;;;;;;5.60;1.63;;;17.50;99.90;;;;;;2567452;23;20075;-74
2022/09/09 05:26:14;;;;;;;5.63;2.08;;;17.60;99.90;;;;;;2567024;23;20009;-74
2022/09/09 05:27:15;;;;;;;3.83;1.65;;;17.60;99.90;;;;;;2553808;23;20006;-74
2022/09/09 05:28:15;;;;;;;7.70;2.20;;;17.50;99.90;;;;;;2554371;23;20805;-74
2022/09/09 05:29:18;;;;;;;8.25;2.55;;;17.60;99.90;;;;;;2553930;23;20008;-74
2022/09/09 05:30:20;;;;;;;5.22;2.13;;;17.60;99.90;;;;;;2554151;23;20012;-74
2022/09/09 05:31:21;;;;;;;4.03;1.75;;;17.60;99.90;;;;;;2554089;23;20001;-74
2022/09/09 05:32:21;;;;;;;6.20;1.85;;;17.60;99.90;;;;;;2567355;23;20004;-74
2022/09/09 05:33:22;;;;;;;6.97;1.80;;;17.60;99.90;;;;;;2566636;23;20015;-74
2022/09/09 05:34:22;;;;;;;4.70;1.50;;;17.60;99.90;;;;;;2567401;23;20001;-74
2022/09/09 05:35:23;;;;;;;8.13;1.92;;;17.60;99.90;;;;;;2567163;23;20009;-74
2022/09/09 05:36:24;;;;;;;6.10;2.00;;;17.60;99.90;;;;;;2566900;23;20004;-74
2022/09/09 05:37:25;;;;;;;3.92;2.00;;;17.60;99.90;;;;;;2567450;23;20004;-74
2022/09/09 05:38:26;;;;;;;6.13;1.83;;;17.60;99.90;;;;;;2567267;23;20456;-74
2022/09/09 05:39:26;;;;;;;4.97;1.50;;;17.60;99.90;;;;;;2553911;23;20412;-74
2022/09/09 05:40:27;;;;;;;5.55;2.05;;;17.70;99.90;;;;;;2553814;23;20058;-74
2022/09/09 05:41:28;;;;;;;5.65;2.30;;;17.70;99.90;;;;;;2567259;23;20009;-74